Accueil
METAR-TAF:

METAR-TAF

Aéroports :

Comté de Franklin, Vermont, États-Unis

latitude: 44-56-25N, longitude: 073-05-51W, altitude: 69 m

Observation

Le bulletin a été fait il y a 13 minutes, à 07:55 UTC
Vent 6 kt de ouest
Température 0°C
Humidité 64%
Pression 1019 hPa
Visibilité: 16.1 km
Nuages épars à une hauteur de 5000 ft
Ciel couvert à une hauteur de 7000 ft

METAR: KFSO 170755Z AUTO 27006KT 10SM SCT050 OVC070 00/M06 A3008 RMK AO2 T10011065

Heure: 03:08 (08:08 UTC)


TAF: absent

Observations et prévisions météorologiques de plus de 4000 aéroports (messages METAR et TAF).

Les stations disponibles sont représentées par des disques jaunes et rouges sur la carte.

Passer la souris dessus pour voir le nom de la station.

Cliquer dessus pour voir les observations et prévisions météorologiques.

Pour changer de carte: cliquez sur les boutons verts avec une croix noire pour zoomer, sur le bouton vert avec un tiret pour effectuer un zoom arrière, ou sur les flèches vertes pour les cartes adjacentes.


METAR-TAF: